Time;durP1;ratioP1;P1;durP2;ratioP2;P2;SDS_P1;SDS_P2;PMS_P1;PMS_P2;Temp;Humidity;BMP_temperature;BMP_pressure;BME280_temperature;BME280_humidity;BME280_pressure;Samples;Min_cycle;Max_cycle;Signal;HPM_P1;HPM_P2
2022/06/27 00:01:41;;;;;;;;;3.00;3.00;;;;;34.86;24.23;100987.91;4898605;28;45352;-78
2022/06/27 00:04:07;;;;;;;;;2.00;2.00;;;;;34.97;24.58;100991.72;4913162;28;45699;-79
2022/06/27 00:06:32;;;;;;;;;3.67;3.33;;;;;34.83;24.04;100987.28;4913060;28;45525;-78
2022/06/27 00:08:57;;;;;;;;;4.67;4.00;;;;;34.75;24.37;100993.38;4912753;28;46932;-78
2022/06/27 00:11:23;;;;;;;;;2.00;2.00;;;;;34.73;24.13;101005.50;4912753;28;45411;-78
2022/06/27 00:13:48;;;;;;;;;3.00;3.00;;;;;34.58;24.35;100999.34;4913180;28;45754;-78
2022/06/27 00:16:13;;;;;;;;;4.33;4.00;;;;;34.60;24.73;101008.38;4898273;28;45181;-78
2022/06/27 00:18:39;;;;;;;;;4.00;4.00;;;;;34.59;24.53;101004.75;4898277;28;46433;-78
2022/06/27 00:21:04;;;;;;;;;6.67;5.00;;;;;34.42;24.63;100958.38;4898115;29;45387;-78
2022/06/27 00:23:30;;;;;;;;;3.00;3.00;;;;;34.76;24.48;101008.06;4912405;28;45399;-78
2022/06/27 00:25:55;;;;;;;;;3.67;3.00;;;;;34.76;24.12;101014.44;4898350;28;45669;-78
2022/06/27 00:28:20;;;;;;;;;2.00;2.00;;;;;34.72;24.48;100999.13;4899658;28;45399;-79
2022/06/27 00:30:46;;;;;;;;;5.00;3.33;;;;;34.63;24.40;100980.59;4901145;28;45452;-78
2022/06/27 00:33:11;;;;;;;;;3.67;3.00;;;;;34.63;24.33;100977.84;4901121;28;45460;-79
2022/06/27 00:35:37;;;;;;;;;4.67;3.00;;;;;34.77;24.38;101005.16;4901137;28;45221;-79
2022/06/27 00:38:02;;;;;;;;;5.00;4.00;;;;;34.79;24.47;100994.03;4900745;29;45421;-79
2022/06/27 00:40:28;;;;;;;;;3.00;3.00;;;;;34.68;24.60;100968.22;4900849;28;45384;-79
2022/06/27 00:42:53;;;;;;;;;3.00;3.00;;;;;34.63;24.56;100973.19;4901305;28;45427;-79
2022/06/27 00:45:18;;;;;;;;;5.33;2.67;;;;;34.83;24.66;100999.19;4901115;28;45426;-78
2022/06/27 00:47:44;;;;;;;;;3.67;3.67;;;;;34.87;24.49;101003.47;4900975;28;45399;-78
2022/06/27 00:50:09;;;;;;;;;4.00;4.00;;;;;34.78;24.65;100995.00;4901072;28;45460;-78
2022/06/27 00:52:36;;;;;;;;;4.00;3.00;;;;;34.76;24.60;100989.63;4900607;28;45439;-78
2022/06/27 00:55:03;;;;;;;;;3.00;3.00;;;;;34.75;24.29;101011.78;4901085;28;45467;-79
2022/06/27 00:57:28;;;;;;;;;3.00;3.00;;;;;34.66;24.78;101002.41;4900548;28;45455;-78
2022/06/27 00:59:54;;;;;;;;;4.33;3.67;;;;;34.67;24.75;101001.38;4900719;29;45450;-78
2022/06/27 01:02:19;;;;;;;;;3.00;3.00;;;;;34.68;24.35;100986.59;4900844;28;45365;-79
2022/06/27 01:04:45;;;;;;;;;4.00;4.00;;;;;34.60;24.63;100975.31;4900840;28;45415;-79
2022/06/27 01:07:11;;;;;;;;;4.67;3.33;;;;;34.68;24.65;100979.22;4900256;28;46238;-79
2022/06/27 01:09:37;;;;;;;;;5.00;4.00;;;;;34.70;24.55;100992.88;4900792;28;45281;-79
2022/06/27 01:12:03;;;;;;;;;3.67;3.67;;;;;34.81;24.61;101012.22;4915485;28;45419;-78
2022/06/27 01:14:29;;;;;;;;;3.33;3.33;;;;;34.72;24.25;101001.91;4900430;29;45473;-78
2022/06/27 01:16:55;;;;;;;;;4.33;3.33;;;;;34.74;24.43;101010.94;4900618;29;45509;-78
2022/06/27 01:19:20;;;;;;;;;4.00;3.00;;;;;34.65;24.71;101001.50;4900343;28;45327;-78
2022/06/27 01:21:52;;;;;;;;;4.00;4.00;;;;;34.80;24.45;101031.66;4900466;28;45406;-79
2022/06/27 01:24:19;;;;;;;;;5.00;3.33;;;;;34.69;24.86;101019.53;4915421;28;45425;-79
2022/06/27 01:26:45;;;;;;;;;4.00;3.00;;;;;34.65;24.35;101023.53;4900518;28;46297;-79
2022/06/27 01:29:12;;;;;;;;;3.33;3.33;;;;;34.53;24.48;101003.34;4900407;28;46149;-79
2022/06/27 01:31:39;;;;;;;;;3.33;3.33;;;;;34.72;24.08;101032.22;4900649;28;45475;-79
2022/06/27 01:34:05;;;;;;;;;4.00;4.00;;;;;34.60;24.29;101027.66;4900476;28;45462;-79
2022/06/27 01:36:43;;;;;;;;;2.33;2.33;;;;;34.44;24.23;101017.84;4899592;29;45496;-78
2022/06/27 01:39:19;;;;;;;;;5.00;3.33;;;;;34.65;24.01;101045.59;4899182;28;45355;-79
2022/06/27 01:41:47;;;;;;;;;2.67;2.67;;;;;34.39;24.12;101033.88;4900479;29;45369;-79
2022/06/27 01:44:13;;;;;;;;;3.00;3.00;;;;;34.24;24.32;101035.00;4900311;28;45443;-79
2022/06/27 01:46:44;;;;;;;;;4.00;2.67;;;;;34.05;24.16;101003.41;4900006;29;46169;-79
2022/06/27 01:49:11;;;;;;;;;3.67;3.00;;;;;34.36;23.77;101039.59;4914377;28;46658;-79
2022/06/27 01:51:37;;;;;;;;;3.00;3.00;;;;;34.19;24.36;101027.97;4900318;28;45346;-78
2022/06/27 01:54:04;;;;;;;;;3.00;3.00;;;;;34.23;24.07;101008.47;4900044;28;45411;-79
2022/06/27 01:56:30;;;;;;;;;3.67;3.67;;;;;34.30;23.99;101007.03;4914253;28;47495;-79
2022/06/27 01:58:59;;;;;;;;;3.00;3.00;;;;;34.56;24.01;101031.66;4900193;28;45448;-79
2022/06/27 02:01:28;;;;;;;;;4.00;2.00;;;;;34.61;23.74;101022.03;4899864;28;45390;-79
2022/06/27 02:03:55;;;;;;;;;5.00;3.67;;;;;34.46;24.02;101014.97;4899878;29;45571;-79
2022/06/27 02:06:21;;;;;;;;;4.33;3.00;;;;;34.46;24.03;101028.72;4899665;28;45522;-78
2022/06/27 02:08:51;;;;;;;;;4.33;3.33;;;;;34.38;23.98;100995.44;4899896;29;45359;-79
2022/06/27 02:11:18;;;;;;;;;3.00;3.00;;;;;34.55;23.90;101017.00;4899950;28;45481;-79
2022/06/27 02:13:43;;;;;;;;;4.00;3.00;;;;;34.52;23.85;101007.09;4899808;28;45383;-79
2022/06/27 02:16:15;;;;;;;;;5.00;4.00;;;;;34.68;23.65;101016.91;4899856;29;46461;-79
2022/06/27 02:18:42;;;;;;;;;3.00;3.00;;;;;34.69;24.07;101007.66;4899403;28;45372;-79
2022/06/27 02:21:10;;;;;;;;;3.00;3.00;;;;;34.70;24.00;101004.78;4914347;28;45443;-79
2022/06/27 02:23:36;;;;;;;;;3.00;3.00;;;;;34.75;24.09;101001.66;4898334;29;45597;-79
2022/06/27 02:26:02;;;;;;;;;3.00;3.00;;;;;34.82;24.36;101002.94;4899598;29;45183;-78
2022/06/27 02:28:29;;;;;;;;;3.00;2.00;;;;;34.91;23.93;101017.00;4914009;28;45460;-79
2022/06/27 02:30:55;;;;;;;;;3.00;3.00;;;;;34.89;23.97;101028.13;4899873;28;45372;-79
2022/06/27 02:33:21;;;;;;;;;3.00;3.00;;;;;34.85;23.99;101013.75;4913462;28;45418;-78
2022/06/27 02:35:47;;;;;;;;;3.00;3.00;;;;;34.93;23.95;101023.28;4899251;28;45768;-78
2022/06/27 02:38:14;;;;;;;;;5.67;3.00;;;;;34.86;23.92;101017.38;4899419;28;45730;-79
2022/06/27 02:40:42;;;;;;;;;5.00;4.00;;;;;34.83;23.86;101015.72;4913919;28;45469;-79
2022/06/27 02:43:09;;;;;;;;;3.33;3.33;;;;;34.76;24.00;101013.56;4914096;28;45292;-79
2022/06/27 02:45:36;;;;;;;;;4.00;3.00;;;;;34.95;24.00;101035.94;4898873;29;46401;-79
2022/06/27 02:48:02;;;;;;;;;4.00;3.00;;;;;34.94;23.80;101044.34;4899037;29;45382;-79
2022/06/27 02:50:31;;;;;;;;;3.00;3.00;;;;;34.95;24.16;101035.03;4898764;28;45395;-79
2022/06/27 02:53:02;;;;;;;;;3.67;3.67;;;;;34.94;24.15;101023.16;4899278;28;45247;-79
2022/06/27 02:55:34;;;;;;;;;2.67;2.67;;;;;34.90;23.69;101021.63;4913433;28;47283;-79
2022/06/27 02:58:10;;;;;;;;;2.00;2.00;;;;;34.98;23.95;101045.81;4899205;28;45356;-79
2022/06/27 03:00:39;;;;;;;;;5.00;3.00;;;;;34.94;24.02;101044.34;4898900;28;45567;-79
2022/06/27 03:03:06;;;;;;;;;3.00;3.00;;;;;34.81;24.09;101034.28;4913454;28;45418;-79
2022/06/27 03:05:32;;;;;;;;;3.67;3.67;;;;;34.74;24.09;101021.06;4913626;28;46107;-79
2022/06/27 03:07:58;;;;;;;;;4.67;4.67;;;;;34.75;24.37;101018.19;4913563;28;45982;-79
2022/06/27 03:10:23;;;;;;;;;4.33;3.00;;;;;34.86;23.96;101032.00;4899092;29;45434;-79
2022/06/27 03:12:49;;;;;;;;;4.00;3.00;;;;;34.75;24.12;101009.03;4913746;28;45454;-79
2022/06/27 03:15:14;;;;;;;;;5.00;4.67;;;;;34.78;24.00;101014.31;4913483;28;47850;-79
2022/06/27 03:17:39;;;;;;;;;3.00;3.00;;;;;34.85;24.18;101011.00;4898644;29;45412;-78
2022/06/27 03:20:06;;;;;;;;;6.67;5.00;;;;;34.81;24.04;100995.69;4898975;28;45328;-79
2022/06/27 03:22:31;;;;;;;;;4.67;4.00;;;;;34.85;23.97;101008.22;4898917;28;45252;-78
2022/06/27 03:24:56;;;;;;;;;6.00;4.00;;;;;34.75;24.10;101006.28;4898803;28;46689;-78
2022/06/27 03:27:22;;;;;;;;;3.33;3.00;;;;;34.77;24.20;101013.44;4898648;28;45470;-78
2022/06/27 03:29:47;;;;;;;;;4.00;4.00;;;;;34.66;24.34;100992.25;4898935;28;45363;-78
2022/06/27 03:32:12;;;;;;;;;4.33;3.67;;;;;34.62;24.03;100995.38;4898378;29;45360;-79
2022/06/27 03:34:38;;;;;;;;;3.67;3.67;;;;;34.69;24.06;100985.59;4898115;28;46476;-79
2022/06/27 03:37:03;;;;;;;;;5.00;4.00;;;;;34.72;24.17;100990.00;4913638;28;46040;-79
2022/06/27 03:39:29;;;;;;;;;6.00;4.00;;;;;34.77;23.94;100982.22;4898687;28;45309;-79
2022/06/27 03:41:54;;;;;;;;;6.00;6.00;;;;;34.80;24.10;100999.44;4898769;28;45321;-78
2022/06/27 03:44:19;;;;;;;;;3.00;3.00;;;;;34.76;24.00;101008.06;4898752;28;46613;-78
2022/06/27 03:46:44;;;;;;;;;5.00;3.00;;;;;34.75;24.22;101007.16;4912688;28;45786;-78
2022/06/27 03:51:55;;;;;;;;;3.67;3.67;;;;;34.85;24.09;101004.56;4898697;29;45237;-78
2022/06/27 03:54:20;;;;;;;;;4.00;4.00;;;;;34.73;24.34;101009.16;4898497;29;46467;-78
2022/06/27 03:56:46;;;;;;;;;4.33;4.00;;;;;34.58;24.51;100993.84;4898383;28;45526;-80
2022/06/27 03:59:12;;;;;;;;;3.33;3.33;;;;;34.68;24.07;100986.59;4913070;28;45490;-80
2022/06/27 04:01:38;;;;;;;;;3.00;3.00;;;;;34.82;24.35;101000.19;4897967;29;45578;-77
2022/06/27 04:04:04;;;;;;;;;3.33;3.33;;;;;34.89;24.12;101002.47;4901022;28;45498;-79
2022/06/27 04:06:30;;;;;;;;;2.33;2.33;;;;;34.63;24.08;100997.13;4901610;28;45401;-79
2022/06/27 04:08:55;;;;;;;;;5.00;4.00;;;;;34.61;24.39;101001.88;4901808;28;45411;-79
2022/06/27 04:11:20;;;;;;;;;4.67;4.67;;;;;34.72;24.36;101015.66;4901815;28;45335;-79
2022/06/27 04:13:46;;;;;;;;;5.00;4.67;;;;;34.62;24.20;101022.91;4915986;28;48144;-79
2022/06/27 04:16:11;;;;;;;;;7.00;4.00;;;;;34.64;24.68;101026.41;4915910;28;45979;-79
2022/06/27 04:18:36;;;;;;;;;7.33;5.00;;;;;34.66;24.25;101008.78;4915844;28;45491;-79
2022/06/27 04:21:02;;;;;;;;;4.00;4.00;;;;;34.68;24.32;101014.16;4901707;28;45419;-79
2022/06/27 04:23:27;;;;;;;;;5.33;5.33;;;;;34.49;24.53;100996.31;4915981;28;47933;-82
2022/06/27 04:25:53;;;;;;;;;3.33;3.33;;;;;34.52;24.70;101031.03;4908612;28;45426;-81
2022/06/27 04:28:18;;;;;;;;;4.00;4.00;;;;;34.37;24.66;101030.34;4916796;28;45597;-83
2022/06/27 04:30:44;;;;;;;;;4.33;4.33;;;;;34.43;24.87;101073.06;4906393;28;45583;-81
2022/06/27 04:33:10;;;;;;;;;5.33;5.00;;;;;34.46;24.71;101068.19;4909480;28;45475;-82
2022/06/27 04:35:36;;;;;;;;;4.00;4.00;;;;;34.34;24.74;101066.38;4911345;28;45568;-81
2022/06/27 04:38:02;;;;;;;;;5.00;4.00;;;;;34.11;24.91;101057.97;4910750;28;45670;-81
2022/06/27 04:40:27;;;;;;;;;4.67;3.00;;;;;34.13;24.83;101089.00;4910833;28;45646;-82
2022/06/27 04:42:53;;;;;;;;;6.00;5.00;;;;;34.08;25.27;101091.25;4920432;28;48213;-82
2022/06/27 04:45:18;;;;;;;;;5.00;3.67;;;;;34.19;25.04;101110.59;4900643;28;45470;-82
2022/06/27 04:47:45;;;;;;;;;5.67;4.67;;;;;34.24;25.14;101096.47;4900972;28;45429;-82
2022/06/27 04:50:14;;;;;;;;;3.67;3.67;;;;;34.14;25.02;101073.38;4900921;28;45585;-81
2022/06/27 04:52:39;;;;;;;;;4.67;3.33;;;;;34.27;25.17;101054.06;4900064;29;45698;-82
2022/06/27 04:55:08;;;;;;;;;6.00;4.00;;;;;34.46;25.05;101062.69;4915477;28;45477;-79
2022/06/27 04:57:37;;;;;;;;;5.00;3.33;;;;;34.33;24.89;101040.72;4899129;29;45375;-79
2022/06/27 05:00:05;;;;;;;;;4.00;4.00;;;;;34.36;24.90;101056.09;4900212;28;45506;-79
2022/06/27 05:02:30;;;;;;;;;2.00;2.00;;;;;34.40;24.61;101073.28;4900237;29;45478;-80
2022/06/27 05:04:56;;;;;;;;;2.33;2.33;;;;;34.25;25.04;101042.25;4900990;28;45351;-79
2022/06/27 05:07:23;;;;;;;;;5.33;3.00;;;;;34.38;25.01;101036.75;4900833;28;45404;-80
2022/06/27 05:09:52;;;;;;;;;5.00;3.33;;;;;34.43;24.82;101038.13;4900322;29;45664;-80
2022/06/27 05:12:18;;;;;;;;;3.00;3.00;;;;;34.47;24.72;101045.16;4891709;28;48093;-81
2022/06/27 05:14:43;;;;;;;;;3.00;3.00;;;;;34.50;25.03;101042.16;4914357;28;45490;-80
2022/06/27 05:17:08;;;;;;;;;4.00;4.00;;;;;34.41;24.76;101042.88;4894867;28;45344;-82
2022/06/27 05:19:34;;;;;;;;;3.33;3.33;;;;;34.52;25.00;101064.94;4889445;28;45467;-81
2022/06/27 05:21:59;;;;;;;;;4.00;4.00;;;;;34.68;25.16;101064.66;4900821;28;46308;-81
2022/06/27 05:24:24;;;;;;;;;5.00;3.00;;;;;34.59;24.74;101039.69;4900856;28;45201;-81
2022/06/27 05:26:50;;;;;;;;;5.67;3.67;;;;;34.56;25.11;101026.13;4885960;28;45757;-83
2022/06/27 05:29:15;;;;;;;;;3.67;3.00;;;;;34.52;25.30;101053.06;4892856;29;45160;-83
2022/06/27 05:31:40;;;;;;;;;3.00;3.00;;;;;34.52;25.31;101061.34;4900504;28;46418;-78
2022/06/27 05:34:06;;;;;;;;;4.67;4.67;;;;;34.42;25.37;101039.13;4902697;28;45372;-83
2022/06/27 05:36:31;;;;;;;;;3.67;3.67;;;;;34.55;25.05;101058.34;4921761;28;45468;-81
2022/06/27 05:38:57;;;;;;;;;4.67;4.00;;;;;34.60;25.60;101057.97;4913509;28;45529;-79
2022/06/27 05:41:22;;;;;;;;;4.00;4.00;;;;;34.47;25.24;101036.00;4919027;28;45376;-82
2022/06/27 05:43:48;;;;;;;;;4.00;4.00;;;;;34.61;25.22;101063.34;4919077;28;45441;-79
2022/06/27 05:46:13;;;;;;;;;5.00;5.00;;;;;34.59;25.05;101078.28;4900593;28;45397;-78
2022/06/27 05:48:39;;;;;;;;;3.33;3.33;;;;;34.63;25.26;101088.94;4899412;28;45593;-78
2022/06/27 05:51:04;;;;;;;;;4.00;4.00;;;;;34.68;25.21;101067.41;4898976;28;45691;-78
2022/06/27 05:53:30;;;;;;;;;4.67;3.67;;;;;34.56;25.11;101065.59;4899591;28;49247;-78
2022/06/27 05:55:55;;;;;;;;;3.67;3.67;;;;;34.48;25.37;101070.84;4899469;28;45536;-77
2022/06/27 05:58:21;;;;;;;;;5.33;3.33;;;;;34.65;25.08;101105.34;4914545;28;45481;-77
2022/06/27 06:00:46;;;;;;;;;3.67;3.00;;;;;34.66;25.16;101115.38;4899690;29;45528;-78
2022/06/27 06:03:12;;;;;;;;;3.33;3.33;;;;;34.49;25.33;101101.00;4899886;28;45890;-78
2022/06/27 06:05:37;;;;;;;;;6.00;5.67;;;;;34.62;25.31;101117.47;4899719;28;45403;-77
2022/06/27 06:08:05;;;;;;;;;5.00;5.00;;;;;34.62;25.32;101119.34;4895770;29;45419;-77
2022/06/27 06:10:33;;;;;;;;;3.00;3.00;;;;;34.50;25.34;101127.56;4880543;29;46227;-77
2022/06/27 06:13:01;;;;;;;;;3.00;3.00;;;;;34.44;25.24;101118.88;4880910;29;45439;-78
2022/06/27 06:15:27;;;;;;;;;4.33;4.33;;;;;34.43;25.47;101125.38;4884986;29;45446;-77
2022/06/27 06:17:54;;;;;;;;;4.00;4.00;;;;;34.50;25.41;101119.31;4898832;29;45352;-78
2022/06/27 06:20:19;;;;;;;;;4.00;3.00;;;;;34.54;25.32;101097.91;4899550;28;45555;-77
2022/06/27 06:22:45;;;;;;;;;7.00;6.33;;;;;34.63;25.52;101083.41;4898569;28;45450;-76
2022/06/27 06:25:11;;;;;;;;;3.00;3.00;;;;;34.63;25.23;101061.38;4913050;28;45518;-77
2022/06/27 06:27:38;;;;;;;;;4.00;4.00;;;;;34.68;24.83;101094.06;4899311;28;45487;-78
2022/06/27 06:30:07;;;;;;;;;3.00;3.00;;;;;34.71;25.03;101110.34;4899430;28;46405;-78
2022/06/27 06:32:34;;;;;;;;;4.33;4.33;;;;;34.64;25.24;101131.13;4899383;29;45408;-77
2022/06/27 06:34:59;;;;;;;;;2.67;2.67;;;;;34.61;25.10;101129.47;4898041;28;45348;-78
2022/06/27 06:37:26;;;;;;;;;5.33;4.33;;;;;34.59;25.16;101117.72;4899362;28;45470;-79
2022/06/27 06:39:52;;;;;;;;;4.33;4.00;;;;;34.44;25.42;101114.25;4895961;28;47097;-78
2022/06/27 06:42:18;;;;;;;;;4.00;3.00;;;;;34.48;25.21;101135.06;4887947;28;45320;-78
2022/06/27 06:44:43;;;;;;;;;4.00;4.00;;;;;34.52;25.34;101122.81;4887475;29;45518;-78
2022/06/27 06:47:09;;;;;;;;;5.00;4.00;;;;;34.51;25.38;101112.78;4899244;29;45471;-78
2022/06/27 06:49:35;;;;;;;;;4.00;4.00;;;;;34.55;24.71;101132.72;4899295;28;45507;-79
2022/06/27 06:52:01;;;;;;;;;4.67;3.67;;;;;34.51;25.04;101145.84;4892023;28;45535;-78
2022/06/27 06:54:31;;;;;;;;;6.00;4.00;;;;;34.44;24.83;101141.78;4894398;28;45449;-80
2022/06/27 06:56:57;;;;;;;;;4.33;4.00;;;;;34.32;25.01;101132.59;4898118;29;45446;-78
2022/06/27 06:59:22;;;;;;;;;3.33;3.33;;;;;34.31;24.82;101133.59;4898269;29;45434;-78
2022/06/27 07:01:49;;;;;;;;;4.33;4.33;;;;;34.41;24.92;101136.53;4898325;28;45341;-78
2022/06/27 07:04:15;;;;;;;;;3.67;3.67;;;;;34.59;24.84;101163.69;4892105;29;45420;-79
2022/06/27 07:06:40;;;;;;;;;5.00;4.00;;;;;34.64;24.46;101169.72;4895343;28;45477;-79
2022/06/27 07:09:06;;;;;;;;;2.00;2.00;;;;;34.59;24.25;101167.31;4897887;29;46128;-79
2022/06/27 07:11:34;;;;;;;;;3.00;3.00;;;;;34.51;24.53;101181.66;4884539;29;45459;-79
2022/06/27 07:14:00;;;;;;;;;2.00;2.00;;;;;34.34;24.78;101180.19;4897910;28;45526;-78
2022/06/27 07:16:26;;;;;;;;;4.00;3.33;;;;;34.43;24.73;101180.47;4887422;29;45475;-83
2022/06/27 07:18:56;;;;;;;;;3.33;3.33;;;;;34.27;24.45;101153.19;4897457;29;45558;-79
2022/06/27 07:21:23;;;;;;;;;2.00;2.00;;;;;34.41;24.30;101193.50;4898496;28;45431;-80
2022/06/27 07:23:52;;;;;;;;;3.33;3.33;;;;;34.51;24.53;101187.16;4901762;28;45488;-80
2022/06/27 07:26:19;;;;;;;;;2.33;2.33;;;;;34.49;24.47;101175.41;4896136;28;45408;-80
2022/06/27 07:28:46;;;;;;;;;5.67;4.00;;;;;34.46;24.12;101188.50;4896861;28;45315;-80
2022/06/27 07:31:12;;;;;;;;;3.00;3.00;;;;;34.46;23.97;101197.69;4898049;28;45343;-80
2022/06/27 07:33:43;;;;;;;;;3.67;2.67;;;;;34.41;24.04;101193.50;4896174;28;45430;-79
2022/06/27 07:36:14;;;;;;;;;4.00;4.00;;;;;34.52;24.37;101201.84;4895484;28;45979;-81
2022/06/27 07:38:41;;;;;;;;;6.00;5.00;;;;;34.59;24.25;101200.38;4898051;28;46398;-81
2022/06/27 07:41:07;;;;;;;;;4.00;4.00;;;;;34.77;24.12;101198.09;4891670;28;45481;-81
2022/06/27 07:43:34;;;;;;;;;3.67;3.00;;;;;34.91;24.04;101207.19;4906549;28;45389;-81
2022/06/27 07:46:00;;;;;;;;;3.67;3.67;;;;;34.82;24.23;101198.63;4898012;28;45577;-80
2022/06/27 07:48:25;;;;;;;;;3.33;3.00;;;;;34.94;24.05;101198.72;4899066;28;46134;-81
2022/06/27 07:50:56;;;;;;;;;5.67;4.00;;;;;34.98;24.29;101202.97;4899424;28;45354;-81
2022/06/27 07:53:22;;;;;;;;;5.00;3.00;;;;;34.90;23.98;101208.22;4901241;28;45530;-81
2022/06/27 07:55:55;;;;;;;;;4.00;4.00;;;;;35.02;23.66;101198.97;4901209;28;45446;-80
2022/06/27 07:58:30;;;;;;;;;4.00;3.00;;;;;35.13;23.27;101201.78;4896383;29;47463;-80
2022/06/27 08:00:57;;;;;;;;;3.00;3.00;;;;;34.98;23.16;101192.84;4898349;28;45524;-80
2022/06/27 08:06:15;;;;;;;;;2.00;2.00;;;;;35.41;22.93;101210.66;4893058;29;45305;-79
2022/06/27 08:08:52;;;;;;;;;2.33;2.33;;;;;35.52;22.98;101216.22;4893358;28;46297;-80
2022/06/27 08:11:20;;;;;;;;;3.00;3.00;;;;;35.50;22.48;101207.19;4899012;28;45689;-79
2022/06/27 08:13:47;;;;;;;;;4.00;4.00;;;;;35.53;22.48;101223.50;4898147;28;45597;-80
2022/06/27 08:16:14;;;;;;;;;1.67;1.67;;;;;35.31;22.26;101205.00;4912996;28;45614;-79
2022/06/27 08:18:43;;;;;;;;;2.33;2.00;;;;;35.24;22.30;101203.69;4901911;28;46661;-80
2022/06/27 08:21:08;;;;;;;;;3.00;3.00;;;;;35.11;22.58;101225.84;4891879;28;45476;-79
2022/06/27 08:23:36;;;;;;;;;5.00;4.00;;;;;35.02;22.72;101218.28;4902099;28;45773;-79
2022/06/27 08:26:06;;;;;;;;;3.00;3.00;;;;;35.26;22.39;101223.78;4915887;28;45518;-79
2022/06/27 08:28:33;;;;;;;;;2.00;2.00;;;;;35.33;21.70;101216.81;4921523;28;47265;-80
2022/06/27 08:31:01;;;;;;;;;2.00;2.00;;;;;35.28;21.94;101218.16;4901249;28;45427;-80
2022/06/27 08:33:29;;;;;;;;;2.00;2.00;;;;;35.21;22.07;101221.38;4910803;28;45410;-80
2022/06/27 08:35:56;;;;;;;;;3.00;3.00;;;;;35.50;22.03;101247.69;4894842;29;45469;-80
2022/06/27 08:38:22;;;;;;;;;3.33;1.00;;;;;35.37;21.63;101234.88;4894774;29;46614;-79
2022/06/27 08:40:50;;;;;;;;;3.33;2.00;;;;;35.39;21.90;101243.03;4896124;28;46653;-80
2022/06/27 08:43:17;;;;;;;;;4.00;2.33;;;;;35.06;22.17;101247.38;4890357;28;45482;-79
2022/06/27 08:45:45;;;;;;;;;4.00;2.00;;;;;35.07;21.96;101249.16;4892038;29;45562;-79
2022/06/27 08:48:11;;;;;;;;;3.00;3.00;;;;;35.12;22.03;101252.44;4890707;28;45424;-79
2022/06/27 08:50:37;;;;;;;;;3.00;2.33;;;;;35.30;21.89;101269.47;4896007;28;45572;-81
2022/06/27 08:53:04;;;;;;;;;4.67;3.00;;;;;35.47;21.96;101270.00;4899822;28;45563;-80
2022/06/27 08:55:33;;;;;;;;;3.33;2.33;;;;;35.31;21.96;101279.50;4903460;28;45530;-80
2022/06/27 08:58:04;;;;;;;;;3.67;2.67;;;;;35.36;21.25;101265.34;4894400;28;46501;-79
2022/06/27 09:00:31;;;;;;;;;2.00;2.00;;;;;35.43;21.73;101274.00;4900070;28;45490;-80
2022/06/27 09:02:57;;;;;;;;;2.00;2.00;;;;;35.38;21.61;101275.25;4895757;28;45512;-80
2022/06/27 09:05:26;;;;;;;;;3.00;2.00;;;;;35.60;21.71;101276.34;4890753;29;45418;-80
2022/06/27 09:07:55;;;;;;;;;3.00;2.00;;;;;35.58;21.64;101269.19;4890415;28;46198;-80
2022/06/27 09:10:29;;;;;;;;;2.00;2.00;;;;;35.46;21.58;101252.59;4896472;28;45579;-80
2022/06/27 09:13:00;;;;;;;;;2.00;1.00;;;;;35.39;21.04;101270.63;4901153;28;45539;-79
2022/06/27 09:15:29;;;;;;;;;4.00;2.00;;;;;35.18;21.39;101251.94;4899844;28;45381;-80
2022/06/27 09:18:02;;;;;;;;;4.00;4.00;;;;;35.38;21.45;101260.59;4912669;28;46184;-79
2022/06/27 09:20:50;;;;;;;;;2.00;2.00;;;;;35.24;21.58;101249.72;4899244;28;45532;-80
2022/06/27 09:23:27;;;;;;;;;1.00;1.00;;;;;35.24;20.54;101252.47;4891216;28;45477;-80
2022/06/27 09:25:58;;;;;;;;;1.33;1.33;;;;;35.28;20.51;101257.63;4903521;28;45459;-80
2022/06/27 09:28:37;;;;;;;;;2.00;2.00;;;;;35.46;21.24;101257.19;4904271;28;45706;-80
2022/06/27 09:31:03;;;;;;;;;2.00;2.00;;;;;35.40;21.10;101244.78;4900684;28;45519;-80
2022/06/27 09:33:31;;;;;;;;;1.00;1.00;;;;;35.49;20.53;101241.31;4899823;28;45438;-80
2022/06/27 09:35:56;;;;;;;;;1.75;1.00;;;;;35.54;20.33;101252.88;4898618;28;45573;-80
2022/06/27 09:38:22;;;;;;;;;2.00;2.00;;;;;35.26;19.93;101243.09;4899632;28;46495;-79
2022/06/27 09:40:48;;;;;;;;;1.00;1.00;;;;;35.18;19.65;101237.28;4897910;28;45376;-80
2022/06/27 09:43:16;;;;;;;;;1.67;1.67;;;;;35.29;19.83;101241.94;4895788;28;45431;-81
2022/06/27 09:45:42;;;;;;;;;1.00;1.00;;;;;35.49;19.64;101255.09;4888122;29;45487;-80
2022/06/27 09:48:09;;;;;;;;;2.25;1.25;;;;;35.42;19.50;101234.50;4894119;29;45872;-81
2022/06/27 09:50:39;;;;;;;;;1.00;1.00;;;;;35.51;19.51;101254.97;4894128;29;45490;-81
2022/06/27 09:53:05;;;;;;;;;1.00;1.00;;;;;35.79;19.65;101261.06;4895885;28;45514;-81
2022/06/27 09:55:30;;;;;;;;;1.00;1.00;;;;;35.73;19.75;101248.63;4892775;29;45343;-81
2022/06/27 09:57:56;;;;;;;;;0.25;0.25;;;;;35.91;19.65;101253.69;4893511;28;45474;-81
2022/06/27 10:00:23;;;;;;;;;1.00;1.00;;;;;35.94;19.56;101259.00;4895055;28;45365;-80
2022/06/27 10:02:49;;;;;;;;;2.00;2.00;;;;;35.72;19.59;101252.38;4895675;29;46242;-81
2022/06/27 10:05:16;;;;;;;;;1.00;1.00;;;;;35.63;19.73;101251.25;4894587;29;45646;-81
2022/06/27 10:07:51;;;;;;;;;1.00;1.00;;;;;35.49;19.74;101246.81;4885735;28;47818;-81
2022/06/27 10:10:17;;;;;;;;;1.00;1.00;;;;;35.55;18.88;101253.72;4895269;28;45887;-80
2022/06/27 10:12:58;;;;;;;;;1.00;1.00;;;;;35.70;19.11;101254.41;4895889;28;45492;-82
2022/06/27 10:15:29;;;;;;;;;0.00;0.00;;;;;35.71;19.03;101248.75;4894050;29;45559;-80
2022/06/27 10:17:57;;;;;;;;;2.00;2.00;;;;;35.87;19.07;101247.56;4885133;29;45851;-80
2022/06/27 10:20:26;;;;;;;;;2.00;2.00;;;;;36.00;19.08;101258.47;4909966;28;45697;-79
2022/06/27 10:23:13;;;;;;;;;2.00;2.00;;;;;35.92;19.13;101247.19;5068269;27;45394;-79
2022/06/27 10:25:41;;;;;;;;;1.00;1.00;;;;;35.99;18.64;101251.19;5055832;28;45343;-79
2022/06/27 10:28:09;;;;;;;;;1.00;1.00;;;;;35.98;18.63;101254.94;5049411;28;46478;-79
2022/06/27 10:30:52;;;;;;;;;1.00;1.00;;;;;36.12;18.62;101251.97;5049550;28;45403;-69
2022/06/27 10:33:23;;;;;;;;;1.25;1.00;;;;;36.36;18.22;101260.16;5042836;28;46529;-72
2022/06/27 10:35:57;;;;;;;;;0.00;0.00;;;;;36.10;18.22;101261.38;5034058;28;45315;-81
2022/06/27 10:38:38;;;;;;;;;3.33;3.33;;;;;36.30;19.13;101260.66;5032861;28;45581;-76
2022/06/27 10:41:08;;;;;;;;;9.00;9.00;;;;;36.33;18.69;101260.41;5017301;28;45794;-75
2022/06/27 10:43:36;;;;;;;;;9.00;9.00;;;;;36.40;17.84;101269.06;5015312;28;45528;-76
2022/06/27 10:46:10;;;;;;;;;2.00;2.00;;;;;36.49;17.90;101259.13;5024911;28;46581;-76
2022/06/27 10:48:52;;;;;;;;;1.25;1.00;;;;;36.44;17.63;101261.41;5030804;28;45922;-76
2022/06/27 10:51:18;;;;;;;;;1.00;1.00;;;;;36.38;17.52;101269.19;5025816;28;46012;-77
2022/06/27 10:53:43;;;;;;;;;1.33;1.00;;;;;36.37;17.12;101258.25;5026180;28;45760;-77
2022/06/27 10:56:28;;;;;;;;;0.67;0.67;;;;;36.51;17.33;101276.44;5026928;28;45513;-78
2022/06/27 10:58:54;;;;;;;;;1.00;1.00;;;;;36.65;17.89;101267.00;5020593;28;45557;-78
2022/06/27 11:01:21;;;;;;;;;1.00;1.00;;;;;36.62;17.91;101247.94;5025688;28;45763;-80
2022/06/27 11:03:49;;;;;;;;;1.00;1.00;;;;;36.72;17.52;101271.00;5026134;28;46564;-80
2022/06/27 11:06:15;;;;;;;;;2.00;1.00;;;;;36.78;17.83;101286.22;5025457;28;45791;-81
2022/06/27 11:08:44;;;;;;;;;3.33;1.33;;;;;36.64;17.17;101249.56;5030018;28;45664;-80
2022/06/27 11:11:16;;;;;;;;;1.00;1.00;;;;;36.62;17.90;101264.50;5026695;28;45838;-80
2022/06/27 11:13:53;;;;;;;;;1.00;1.00;;;;;36.66;17.85;101266.00;5026740;28;46107;-80
2022/06/27 11:16:22;;;;;;;;;0.00;0.00;;;;;36.94;17.38;101263.72;5024991;28;45754;-80
2022/06/27 11:18:48;;;;;;;;;1.25;0.75;;;;;37.11;17.42;101270.56;5025797;28;45850;-80
2022/06/27 11:21:16;;;;;;;;;3.00;1.00;;;;;37.17;17.39;101267.25;5034323;28;45586;-80
2022/06/27 11:23:58;;;;;;;;;1.00;1.00;;;;;37.05;18.09;101261.78;5046153;28;45592;-78
2022/06/27 11:26:29;;;;;;;;;1.00;1.00;;;;;37.05;18.08;101266.44;5044462;28;45627;-78
2022/06/27 11:31:57;;;;;;;;;1.00;1.00;;;;;36.85;17.92;101271.78;5044801;28;45471;-79
2022/06/27 11:34:26;;;;;;;;;1.00;1.00;;;;;36.71;18.30;101277.53;5032819;28;45850;-77